Time;durP1;ratioP1;P1;durP2;ratioP2;P2;SDS_P1;SDS_P2;PMS_P1;PMS_P2;Temp;Humidity;BMP_temperature;BMP_pressure;BME280_temperature;BME280_humidity;BME280_pressure;Samples;Min_cycle;Max_cycle;Signal;HPM_P1;HPM_P2
2023/12/26 00:02:32;;;;;;;;;1.75;1.75;;;;;14.78;69.19;100770.63;4847458;29;45395;-81
2023/12/26 00:04:58;;;;;;;;;2.00;2.00;;;;;14.59;69.11;100768.00;4832893;29;45525;-79
2023/12/26 00:07:23;;;;;;;;;3.50;3.00;;;;;14.58;68.64;100770.66;4847071;29;45421;-80
2023/12/26 00:09:49;;;;;;;;;3.75;2.75;;;;;14.63;69.35;100784.06;4832418;29;46937;-79
2023/12/26 00:12:15;;;;;;;;;2.00;2.00;;;;;14.60;69.22;100774.22;4847736;29;45444;-82
2023/12/26 00:14:40;;;;;;;;;2.75;2.75;;;;;14.67;69.46;100788.50;4844723;29;45471;-80
2023/12/26 00:17:06;;;;;;;;;1.75;1.75;;;;;14.62;69.12;100783.16;4830205;29;45502;-79
2023/12/26 00:19:31;;;;;;;;;1.75;1.75;;;;;14.62;69.23;100768.88;4846352;29;47311;-81
2023/12/26 00:21:56;;;;;;;;;2.25;2.00;;;;;14.67;69.16;100772.44;4846433;29;45507;-80
2023/12/26 00:24:22;;;;;;;;;2.50;2.00;;;;;14.62;69.34;100767.09;4834804;29;45379;-80
2023/12/26 00:26:47;;;;;;;;;4.00;2.75;;;;;14.61;69.50;100759.97;4830173;29;45361;-80
2023/12/26 00:29:12;;;;;;;;;3.00;2.00;;;;;14.67;69.11;100769.78;4827864;29;47092;-81
2023/12/26 00:31:41;;;;;;;;;2.25;2.25;;;;;14.78;69.60;100767.94;4829714;29;45371;-80
2023/12/26 00:34:07;;;;;;;;;1.75;1.75;;;;;14.61;69.47;100751.94;4828993;29;44830;-81
2023/12/26 00:36:33;;;;;;;;;3.50;1.50;;;;;14.64;68.59;100759.06;4838841;29;45494;-80
2023/12/26 00:38:58;;;;;;;;;2.75;2.50;;;;;14.62;69.50;100756.38;4829985;29;47903;-80
2023/12/26 00:41:24;;;;;;;;;3.50;2.75;;;;;14.60;69.54;100753.72;4846416;29;45528;-81
2023/12/26 00:43:51;;;;;;;;;3.50;2.00;;;;;14.59;69.19;100751.06;4829183;29;45457;-80
2023/12/26 00:46:18;;;;;;;;;3.00;2.50;;;;;14.54;69.35;100736.75;4845605;29;45582;-80
2023/12/26 00:48:45;;;;;;;;;2.25;2.25;;;;;14.49;68.98;100744.78;4844912;29;46188;-82
2023/12/26 00:51:11;;;;;;;;;3.00;2.00;;;;;14.83;68.28;100743.84;4843671;29;45451;-80
2023/12/26 00:53:37;;;;;;;;;4.25;3.00;;;;;14.87;67.44;100743.84;4845501;29;45508;-80
2023/12/26 00:56:03;;;;;;;;;3.25;3.00;;;;;14.89;67.43;100746.50;4847517;29;44912;-80
2023/12/26 00:58:29;;;;;;;;;6.00;3.50;;;;;14.85;67.82;100756.34;4847463;29;45838;-80
2023/12/26 01:00:54;;;;;;;;;5.75;2.00;;;;;14.81;67.70;100746.53;4833382;29;45482;-80
2023/12/26 01:03:22;;;;;;;;;3.75;2.75;;;;;14.86;67.33;100763.47;4849862;29;45787;-79
2023/12/26 01:05:54;;;;;;;;;1.00;1.00;;;;;14.83;67.50;100760.81;4848597;29;45404;-80
2023/12/26 01:08:20;;;;;;;;;2.50;1.25;;;;;14.77;67.16;100758.16;4832074;29;47788;-80
2023/12/26 01:10:45;;;;;;;;;2.00;1.00;;;;;14.25;68.71;100753.75;4847362;29;45533;-81
2023/12/26 01:13:11;;;;;;;;;5.75;3.50;;;;;14.18;69.09;100755.53;4846844;29;45384;-82
2023/12/26 01:18:58;;;;;;;;;1.00;1.00;;;;;14.27;69.01;100767.13;4848666;29;45545;-82
2023/12/26 01:21:24;;;;;;;;;2.75;2.75;;;;;14.27;69.43;100754.63;4848631;29;44898;-83
2023/12/26 01:23:51;;;;;;;;;2.25;2.25;;;;;14.29;69.42;100765.34;4833398;29;45349;-82
2023/12/26 01:26:19;;;;;;;;;3.00;2.00;;;;;14.25;69.17;100750.19;4834318;29;45395;-80
2023/12/26 01:29:31;;;;;;;;;2.00;2.00;;;;;14.47;69.58;100762.63;4849087;29;45330;-81
2023/12/26 01:31:57;;;;;;;;;4.00;3.25;;;;;14.34;69.74;100769.78;4848796;29;45438;-80
2023/12/26 01:34:22;;;;;;;;;3.25;1.50;;;;;14.35;69.67;100757.31;4849936;29;45446;-80
2023/12/26 01:36:47;;;;;;;;;2.67;2.67;;;;;14.36;69.59;100757.31;4846120;29;45525;-82
2023/12/26 01:39:14;;;;;;;;;3.75;3.75;;;;;14.36;69.67;100754.63;4848407;29;45420;-82
2023/12/26 01:41:39;;;;;;;;;2.50;2.25;;;;;14.37;69.90;100759.06;4847856;29;45570;-80
2023/12/26 01:44:05;;;;;;;;;3.00;2.25;;;;;14.40;70.05;100756.41;4848704;29;45315;-80
2023/12/26 01:46:30;;;;;;;;;2.00;2.00;;;;;14.42;70.04;100764.41;4848003;29;45599;-81
2023/12/26 01:48:56;;;;;;;;;2.25;1.75;;;;;14.34;69.43;100760.84;4845744;29;47077;-80
2023/12/26 01:51:25;;;;;;;;;4.00;2.75;;;;;14.41;70.36;100762.63;4847623;29;45468;-81
2023/12/26 01:53:51;;;;;;;;;4.75;3.50;;;;;14.40;70.11;100764.44;4848189;29;45551;-80
2023/12/26 01:56:17;;;;;;;;;5.67;2.33;;;;;14.35;70.58;100751.94;4848699;29;45344;-81
2023/12/26 01:58:45;;;;;;;;;4.00;4.00;;;;;14.36;70.07;100759.97;4846206;29;48151;-80
2023/12/26 02:01:12;;;;;;;;;3.00;3.00;;;;;14.41;70.13;100759.97;4846077;29;45377;-83
2023/12/26 02:03:37;;;;;;;;;2.00;2.00;;;;;14.36;69.63;100753.72;4830684;29;45376;-80
2023/12/26 02:06:03;;;;;;;;;4.50;4.50;;;;;14.34;70.18;100768.88;4831395;29;45284;-81
2023/12/26 02:08:29;;;;;;;;;5.00;2.00;;;;;14.30;70.21;100764.44;4846032;29;47472;-81
2023/12/26 02:10:55;;;;;;;;;1.25;1.25;;;;;14.35;70.34;100774.25;4846456;29;45875;-80
2023/12/26 02:13:21;;;;;;;;;2.00;1.00;;;;;14.38;70.13;100778.69;4848387;29;45504;-80
2023/12/26 02:15:49;;;;;;;;;4.00;4.00;;;;;14.33;69.79;100777.81;4847516;29;45496;-81
2023/12/26 02:18:15;;;;;;;;;3.00;2.00;;;;;14.20;70.23;100771.59;4848652;29;45344;-81
2023/12/26 02:20:40;;;;;;;;;1.00;1.00;;;;;14.20;70.80;100772.47;4848352;29;45599;-81
2023/12/26 02:23:06;;;;;;;;;1.75;1.75;;;;;14.20;70.94;100777.81;4850152;29;45458;-81
2023/12/26 02:25:31;;;;;;;;;3.00;1.75;;;;;14.24;70.91;100775.13;4865842;29;45681;-80
2023/12/26 02:27:59;;;;;;;;;2.00;2.00;;;;;14.27;70.79;100784.06;4866642;29;45611;-80
2023/12/26 02:30:25;;;;;;;;;2.00;2.00;;;;;14.24;70.87;100783.16;4850463;29;45539;-80
2023/12/26 02:32:53;;;;;;;;;3.50;2.00;;;;;14.23;70.82;100781.38;4849925;29;45582;-80
2023/12/26 02:35:20;;;;;;;;;2.25;2.00;;;;;14.20;71.00;100780.50;4850959;29;45493;-81
2023/12/26 02:37:46;;;;;;;;;3.00;2.00;;;;;14.25;70.89;100785.84;4867499;29;45846;-81
2023/12/26 02:40:12;;;;;;;;;3.75;3.75;;;;;14.24;71.19;100783.16;4866880;29;45417;-81
2023/12/26 02:42:37;;;;;;;;;4.00;2.50;;;;;14.27;71.17;100792.09;4850910;29;45425;-80
2023/12/26 02:45:03;;;;;;;;;3.00;3.00;;;;;14.28;71.16;100771.56;4836247;29;45489;-80
2023/12/26 02:47:29;;;;;;;;;2.00;2.00;;;;;14.25;71.10;100768.91;4867975;29;45399;-80
2023/12/26 02:49:54;;;;;;;;;1.00;1.00;;;;;14.29;70.95;100768.00;4866500;29;45523;-80
2023/12/26 02:52:20;;;;;;;;;2.00;2.00;;;;;14.27;71.21;100775.16;4867241;29;45490;-81
2023/12/26 02:54:48;;;;;;;;;0.75;0.75;;;;;14.25;70.50;100776.94;4868427;29;45421;-81
2023/12/26 02:57:13;;;;;;;;;3.00;2.00;;;;;14.20;71.05;100776.94;4866945;29;45418;-81
2023/12/26 02:59:39;;;;;;;;;4.50;4.00;;;;;14.17;71.11;100768.91;4862584;29;45386;-80
2023/12/26 03:02:04;;;;;;;;;3.75;1.00;;;;;14.19;71.60;100781.38;4847687;29;45910;-80
2023/12/26 03:04:29;;;;;;;;;3.00;3.00;;;;;14.20;70.88;100769.78;4862762;29;45424;-80
2023/12/26 03:06:56;;;;;;;;;2.67;1.33;;;;;14.23;71.67;100773.38;4863627;29;45787;-81
2023/12/26 03:09:22;;;;;;;;;3.00;3.00;;;;;14.28;71.61;100779.59;4863299;29;45403;-81
2023/12/26 03:11:47;;;;;;;;;2.50;1.50;;;;;14.27;71.49;100776.03;4850016;29;45446;-81
2023/12/26 03:14:14;;;;;;;;;1.00;1.00;;;;;14.30;71.38;100776.03;4866410;29;45639;-81
2023/12/26 03:16:40;;;;;;;;;3.25;2.00;;;;;14.24;71.52;100769.78;4866231;29;45846;-81
2023/12/26 03:19:05;;;;;;;;;2.00;2.00;;;;;14.27;71.56;100769.78;4865729;29;45416;-81
2023/12/26 03:21:31;;;;;;;;;2.00;1.00;;;;;14.28;71.51;100787.59;4864265;29;45453;-81
2023/12/26 03:23:56;;;;;;;;;1.25;1.00;;;;;14.29;71.77;100771.56;4864764;29;45384;-81
2023/12/26 03:26:22;;;;;;;;;2.50;1.50;;;;;14.33;71.37;100775.13;4865182;29;46098;-81
2023/12/26 03:28:47;;;;;;;;;3.00;3.00;;;;;14.37;71.59;100780.47;4863796;29;45667;-81
2023/12/26 03:31:13;;;;;;;;;2.00;2.00;;;;;14.38;71.96;100773.34;4849337;29;45378;-81
2023/12/26 03:33:38;;;;;;;;;3.33;2.00;;;;;14.42;71.78;100780.47;4864410;29;45454;-81
2023/12/26 03:36:05;;;;;;;;;1.67;1.00;;;;;14.42;71.86;100767.09;4862021;29;46877;-80
2023/12/26 03:38:30;;;;;;;;;1.00;1.00;;;;;14.40;71.86;100766.19;4864111;29;45451;-80
2023/12/26 03:40:56;;;;;;;;;3.00;1.67;;;;;14.44;71.62;100768.00;4864965;29;45438;-81
2023/12/26 03:43:22;;;;;;;;;1.00;1.00;;;;;14.38;71.54;100767.97;4865668;29;45446;-81
2023/12/26 03:45:48;;;;;;;;;2.00;2.00;;;;;14.37;71.60;100758.19;4864893;29;45426;-81
2023/12/26 03:48:14;;;;;;;;;2.67;1.33;;;;;14.36;71.20;100756.38;4866141;29;45499;-81
2023/12/26 03:50:39;;;;;;;;;2.33;2.33;;;;;14.33;72.00;100757.28;4849589;29;45364;-81
2023/12/26 03:53:05;;;;;;;;;2.00;2.00;;;;;14.34;72.03;100760.84;4849646;29;45593;-81
2023/12/26 03:55:30;;;;;;;;;3.67;2.00;;;;;14.35;71.98;100750.16;4866358;29;46477;-81
2023/12/26 03:57:56;;;;;;;;;1.67;1.67;;;;;14.34;71.75;100758.19;4866331;29;45804;-81
2023/12/26 04:00:21;;;;;;;;;1.75;1.00;;;;;14.34;71.77;100756.41;4849939;29;45418;-81
2023/12/26 04:02:47;;;;;;;;;1.75;1.00;;;;;14.39;72.23;100769.78;4865356;29;45438;-81
2023/12/26 04:05:13;;;;;;;;;4.00;1.67;;;;;14.48;72.40;100768.88;4865090;29;45563;-81
2023/12/26 04:07:39;;;;;;;;;2.25;1.25;;;;;14.42;71.97;100769.75;4864530;29;45357;-81
2023/12/26 04:10:05;;;;;;;;;1.75;1.75;;;;;14.48;71.87;100772.47;4847364;29;45423;-80
2023/12/26 04:12:32;;;;;;;;;2.00;1.00;;;;;14.43;71.99;100770.69;4866164;29;45720;-80
2023/12/26 04:14:57;;;;;;;;;2.00;2.00;;;;;14.43;72.36;100776.03;4847855;29;47400;-80
2023/12/26 04:17:23;;;;;;;;;2.00;2.00;;;;;14.41;72.23;100762.63;4863764;29;45422;-80
2023/12/26 04:19:48;;;;;;;;;2.33;2.00;;;;;14.44;72.28;100772.44;4865513;29;45414;-81
2023/12/26 04:22:14;;;;;;;;;2.33;1.67;;;;;14.45;72.32;100777.81;4865716;29;45498;-81
2023/12/26 04:24:39;;;;;;;;;3.00;2.00;;;;;14.41;72.56;100778.69;4837490;29;46923;-80
2023/12/26 04:27:05;;;;;;;;;3.00;3.00;;;;;14.45;72.55;100767.09;4845346;29;45546;-81
2023/12/26 04:29:32;;;;;;;;;1.00;1.00;;;;;14.41;72.30;100778.69;4845617;29;45539;-81
2023/12/26 04:31:57;;;;;;;;;1.00;1.00;;;;;14.38;72.38;100786.72;4845616;29;44930;-80
2023/12/26 04:34:22;;;;;;;;;3.00;1.75;;;;;14.37;72.53;100776.91;4830460;29;47383;-80
2023/12/26 04:36:48;;;;;;;;;3.67;3.33;;;;;14.38;72.88;100786.72;4845712;29;45425;-81
2023/12/26 04:39:14;;;;;;;;;2.67;1.67;;;;;14.36;72.65;100786.75;4831295;29;45430;-81
2023/12/26 04:41:39;;;;;;;;;5.00;3.00;;;;;14.37;72.88;100793.84;4844811;29;45382;-81
2023/12/26 04:44:04;;;;;;;;;3.00;2.00;;;;;14.36;72.66;100788.50;4844661;29;45404;-81
2023/12/26 04:46:30;;;;;;;;;3.67;2.67;;;;;14.35;73.06;100792.97;4829304;29;45810;-81
2023/12/26 04:48:55;;;;;;;;;4.00;2.00;;;;;14.38;73.19;100800.09;4829221;29;45289;-81
2023/12/26 04:51:21;;;;;;;;;4.50;2.00;;;;;14.35;73.18;100789.41;4829410;29;45762;-81
2023/12/26 04:53:47;;;;;;;;;5.33;2.33;;;;;14.36;73.19;100786.75;4843830;29;47094;-81
2023/12/26 04:56:19;;;;;;;;;2.00;2.00;;;;;14.45;73.27;100796.53;4828979;29;45440;-81
2023/12/26 04:58:50;;;;;;;;;2.00;2.00;;;;;14.46;73.27;100792.97;4845490;29;45318;-81
2023/12/26 05:01:16;;;;;;;;;4.25;3.00;;;;;14.35;73.60;100805.47;4846654;29;45898;-81
2023/12/26 05:03:43;;;;;;;;;1.75;1.75;;;;;14.32;73.59;100806.34;4830532;29;46976;-81
2023/12/26 05:06:09;;;;;;;;;4.00;3.00;;;;;14.30;73.84;100813.50;4846573;29;45321;-81
2023/12/26 05:08:38;;;;;;;;;1.50;1.50;;;;;14.41;73.97;100808.13;4846853;29;45365;-81
2023/12/26 05:11:04;;;;;;;;;2.25;2.25;;;;;14.33;73.81;100808.13;4847578;29;45332;-80
2023/12/26 05:13:29;;;;;;;;;7.00;3.00;;;;;14.36;73.98;100813.50;4846093;29;47485;-81
2023/12/26 05:15:55;;;;;;;;;4.67;4.67;;;;;14.29;73.86;100798.31;4830102;29;45502;-81
2023/12/26 05:18:20;;;;;;;;;4.00;3.00;;;;;14.38;74.17;100810.78;4846321;29;45453;-81
2023/12/26 05:20:45;;;;;;;;;2.75;2.75;;;;;14.39;74.12;100823.28;4844920;29;45774;-80
2023/12/26 05:23:12;;;;;;;;;3.00;2.67;;;;;14.40;74.21;100833.09;4845928;29;48126;-81
2023/12/26 05:25:37;;;;;;;;;2.00;2.00;;;;;14.41;73.94;100826.84;4845934;29;46272;-81
2023/12/26 05:28:03;;;;;;;;;1.00;1.00;;;;;14.44;74.00;100825.97;4847535;29;45452;-81
2023/12/26 05:30:29;;;;;;;;;2.00;2.00;;;;;14.39;74.16;100825.97;4847577;29;45440;-81
2023/12/26 05:32:57;;;;;;;;;3.00;3.00;;;;;14.48;74.47;100838.44;4846402;29;46106;-81
2023/12/26 05:35:22;;;;;;;;;3.00;3.00;;;;;14.35;74.14;100833.09;4846588;29;45494;-81
2023/12/26 05:37:48;;;;;;;;;6.00;3.00;;;;;14.35;74.56;100841.13;4846168;29;45488;-81
2023/12/26 05:40:14;;;;;;;;;2.00;2.00;;;;;14.37;74.33;100842.00;4830297;29;45586;-81
2023/12/26 05:42:39;;;;;;;;;2.00;2.00;;;;;14.38;74.73;100853.59;4846315;29;48161;-81
2023/12/26 05:45:11;;;;;;;;;3.50;1.00;;;;;14.37;74.73;100857.19;4845938;29;45453;-81
2023/12/26 05:47:36;;;;;;;;;2.00;2.00;;;;;14.35;74.83;100865.19;4847829;29;45488;-81
2023/12/26 05:53:24;;;;;;;;;2.00;1.75;;;;;14.39;74.81;100871.47;4847237;29;45648;-81
2023/12/26 05:55:49;;;;;;;;;2.00;2.00;;;;;14.37;75.15;100871.44;4847786;29;45741;-81
2023/12/26 05:58:15;;;;;;;;;2.00;1.25;;;;;14.41;74.96;100872.34;4848042;29;46169;-81
2023/12/26 06:00:40;;;;;;;;;5.25;2.75;;;;;14.39;74.96;100866.09;4847610;29;45717;-81
2023/12/26 06:03:06;;;;;;;;;0.00;0.00;;;;;14.38;75.22;100872.34;4833379;29;48214;-81
2023/12/26 06:05:31;;;;;;;;;2.50;2.50;;;;;14.39;75.17;100882.16;4846873;29;45644;-81
2023/12/26 06:07:56;;;;;;;;;1.00;1.00;;;;;14.43;75.23;100875.91;4847028;29;45485;-81
2023/12/26 06:10:22;;;;;;;;;4.00;1.00;;;;;14.42;75.28;100876.78;4848171;29;45318;-81
2023/12/26 06:12:47;;;;;;;;;3.25;3.25;;;;;14.45;75.36;100881.28;4850082;29;45482;-81
2023/12/26 06:18:35;;;;;;;;;2.25;2.00;;;;;14.45;75.10;100882.16;4848844;29;45556;-81
2023/12/26 06:21:00;;;;;;;;;2.00;2.00;;;;;14.45;75.28;100878.59;4847240;29;45371;-81
2023/12/26 06:23:31;;;;;;;;;2.50;1.50;;;;;14.56;75.36;100880.44;4847373;29;45646;-82
2023/12/26 06:25:57;;;;;;;;;2.00;2.00;;;;;14.48;75.35;100883.94;4851339;29;45974;-80
2023/12/26 06:28:22;;;;;;;;;4.00;2.00;;;;;14.50;75.58;100884.81;4866730;29;45483;-81
2023/12/26 06:30:48;;;;;;;;;3.50;3.50;;;;;14.48;75.56;100873.22;4866992;29;44812;-81
2023/12/26 06:33:13;;;;;;;;;2.75;1.75;;;;;14.50;75.67;100874.13;4867464;29;45490;-81
2023/12/26 06:35:40;;;;;;;;;4.00;3.00;;;;;14.58;75.79;100878.63;4867692;29;45315;-81
2023/12/26 06:38:12;;;;;;;;;3.75;3.75;;;;;14.48;75.76;100875.91;4851591;29;45333;-82
2023/12/26 06:40:39;;;;;;;;;2.75;2.75;;;;;14.49;75.81;100886.63;4868525;29;45410;-80
2023/12/26 06:43:04;;;;;;;;;3.00;3.00;;;;;14.46;75.93;100892.00;4865529;29;47779;-80
2023/12/26 06:45:29;;;;;;;;;2.75;2.75;;;;;14.50;76.07;100900.88;4867348;29;45794;-80
2023/12/26 06:47:56;;;;;;;;;6.50;3.00;;;;;14.59;75.83;100906.28;4867135;29;45757;-81
2023/12/26 06:50:22;;;;;;;;;4.25;4.00;;;;;14.47;76.25;100895.56;4867631;29;45536;-80
2023/12/26 06:52:48;;;;;;;;;2.00;2.00;;;;;14.46;76.03;100905.38;4850494;29;47414;-80
2023/12/26 06:55:13;;;;;;;;;1.75;1.00;;;;;14.41;75.93;100907.13;4850257;29;46086;-81
2023/12/26 06:57:39;;;;;;;;;2.25;2.25;;;;;14.38;76.23;100909.78;4849104;29;45567;-80
2023/12/26 07:00:05;;;;;;;;;4.75;3.00;;;;;14.37;76.37;100900.88;4851005;29;45471;-80
2023/12/26 07:02:34;;;;;;;;;2.50;2.25;;;;;14.35;76.62;100902.66;4851538;29;47077;-82
2023/12/26 07:05:00;;;;;;;;;3.50;2.25;;;;;14.36;76.74;100907.13;4850203;29;44863;-82
2023/12/26 07:07:31;;;;;;;;;2.00;1.00;;;;;14.52;76.63;100921.44;4867256;29;45396;-80
2023/12/26 07:09:57;;;;;;;;;2.25;2.00;;;;;14.37;76.69;100922.28;4850276;29;45325;-81
2023/12/26 07:12:32;;;;;;;;;2.50;2.50;;;;;14.36;76.65;100931.22;4849748;29;46867;-82
2023/12/26 07:14:57;;;;;;;;;1.00;1.00;;;;;14.32;76.90;100928.50;4866227;29;45505;-81
2023/12/26 07:17:23;;;;;;;;;1.75;1.75;;;;;14.36;77.15;100941.00;4868857;29;45503;-82
2023/12/26 07:19:51;;;;;;;;;2.75;2.75;;;;;14.44;77.18;100949.97;4869142;29;45413;-81
2023/12/26 07:22:17;;;;;;;;;1.00;1.00;;;;;14.30;77.00;100955.28;4868688;29;45407;-82
2023/12/26 07:24:42;;;;;;;;;3.00;1.50;;;;;14.37;77.00;100953.50;4858918;29;45965;-81
2023/12/26 07:27:08;;;;;;;;;0.75;0.75;;;;;14.30;77.07;100941.00;4847063;29;45411;-80
2023/12/26 07:29:34;;;;;;;;;3.00;3.00;;;;;14.39;77.16;100959.75;4850331;29;45409;-81
2023/12/26 07:31:59;;;;;;;;;2.00;2.00;;;;;14.36;77.12;100955.31;4849855;29;45507;-81
2023/12/26 07:34:25;;;;;;;;;5.00;3.00;;;;;14.35;77.32;100982.94;4830503;29;45908;-80
2023/12/26 07:36:51;;;;;;;;;1.00;1.00;;;;;14.35;77.75;100987.41;4843639;29;45538;-80
2023/12/26 07:39:18;;;;;;;;;2.00;2.00;;;;;14.36;77.58;100983.81;4846723;29;45400;-81
2023/12/26 07:41:43;;;;;;;;;2.75;2.00;;;;;14.36;77.53;100983.81;4846630;29;47026;-80
2023/12/26 07:44:09;;;;;;;;;5.00;3.00;;;;;14.34;77.69;100985.59;4847899;29;45308;-81
2023/12/26 07:46:34;;;;;;;;;3.00;3.00;;;;;14.38;77.64;101006.13;4847367;29;44862;-81
2023/12/26 07:49:00;;;;;;;;;2.00;2.00;;;;;14.32;77.63;100995.41;4847152;29;45410;-81
2023/12/26 07:51:26;;;;;;;;;1.75;1.75;;;;;14.33;77.94;101000.75;4847132;29;45442;-80
2023/12/26 07:53:52;;;;;;;;;3.50;1.00;;;;;14.36;77.94;101015.91;4846771;29;45758;-80
2023/12/26 07:56:18;;;;;;;;;4.00;3.00;;;;;14.33;77.84;101010.56;4832954;29;45444;-81
2023/12/26 07:58:45;;;;;;;;;5.75;2.75;;;;;14.45;78.10;101015.97;4849967;29;45533;-80
2023/12/26 08:01:12;;;;;;;;;3.00;2.00;;;;;14.36;78.36;101000.78;4848964;29;46348;-81
2023/12/26 08:03:38;;;;;;;;;4.00;1.00;;;;;14.41;78.18;101038.25;4830561;29;45897;-80
2023/12/26 08:06:03;;;;;;;;;3.00;1.50;;;;;14.44;78.41;101038.28;4825886;29;45068;-80
2023/12/26 08:08:32;;;;;;;;;5.00;3.50;;;;;14.41;78.24;101040.94;4845574;29;45397;-79
2023/12/26 08:10:58;;;;;;;;;3.00;3.00;;;;;14.44;78.58;101048.06;4846195;29;46559;-80
2023/12/26 08:13:28;;;;;;;;;3.00;2.00;;;;;14.53;78.37;101057.00;4848138;29;45500;-80
2023/12/26 08:16:04;;;;;;;;;3.50;3.50;;;;;14.54;78.26;101057.91;4848387;29;45487;-80
2023/12/26 08:18:29;;;;;;;;;3.00;2.00;;;;;14.41;78.69;101068.56;4828658;29;46189;-80
2023/12/26 08:20:54;;;;;;;;;3.25;3.00;;;;;14.42;78.59;101061.44;4845335;29;46988;-80
2023/12/26 08:23:20;;;;;;;;;3.75;3.00;;;;;14.42;78.64;101058.75;4846186;29;45770;-80
2023/12/26 08:25:45;;;;;;;;;4.25;2.50;;;;;14.45;78.66;101069.47;4870099;29;44741;-80
2023/12/26 08:28:11;;;;;;;;;2.00;2.00;;;;;14.46;78.72;101076.63;4871450;29;45357;-80
2023/12/26 08:30:39;;;;;;;;;3.00;3.00;;;;;14.47;78.78;101077.53;4854877;29;47357;-80
2023/12/26 08:33:06;;;;;;;;;2.00;1.75;;;;;14.56;79.12;101082.91;4873230;29;46043;-80
2023/12/26 08:35:34;;;;;;;;;3.00;1.25;;;;;14.54;79.15;101068.59;4891830;29;44808;-80
2023/12/26 08:38:00;;;;;;;;;2.00;2.00;;;;;14.52;78.81;101084.69;4876967;29;45347;-81
2023/12/26 08:40:28;;;;;;;;;3.00;3.00;;;;;14.67;79.32;101091.88;4869062;29;47371;-81
2023/12/26 08:42:55;;;;;;;;;3.75;3.00;;;;;14.62;79.27;101098.13;4838650;29;44987;-80
2023/12/26 08:45:21;;;;;;;;;2.00;2.00;;;;;14.44;79.08;101081.09;4838655;29;45415;-80
2023/12/26 08:48:33;;;;;;;;;3.25;2.00;;;;;14.67;79.24;101082.97;4855122;29;45480;-80
2023/12/26 08:51:00;;;;;;;;;1.50;1.00;;;;;14.50;79.43;101081.13;4837636;29;47049;-80
2023/12/26 08:53:30;;;;;;;;;4.50;1.00;;;;;14.58;80.10;101086.50;4838069;29;45461;-79
2023/12/26 08:56:04;;;;;;;;;1.75;1.25;;;;;14.57;80.23;101090.97;4824164;29;44878;-80
2023/12/26 08:58:35;;;;;;;;;2.75;2.00;;;;;14.47;80.15;101072.16;4856752;29;45699;-80
2023/12/26 09:01:06;;;;;;;;;1.00;1.00;;;;;14.60;80.68;101103.44;4856865;29;45461;-80
2023/12/26 09:03:44;;;;;;;;;3.50;1.50;;;;;14.46;80.78;101098.03;4856040;29;45438;-80
2023/12/26 09:06:12;;;;;;;;;1.50;1.50;;;;;14.58;81.05;101115.94;4855179;29;45564;-80
2023/12/26 09:09:34;;;;;;;;;5.00;2.25;;;;;14.69;80.79;101132.06;4837121;29;44869;-80
2023/12/26 09:12:00;;;;;;;;;2.50;1.00;;;;;14.54;81.13;101143.53;4852710;29;45181;-80
2023/12/26 09:14:26;;;;;;;;;4.25;4.25;;;;;14.50;81.22;101129.28;4838492;29;44890;-79
2023/12/26 09:16:51;;;;;;;;;10.00;8.75;;;;;14.54;81.18;101140.88;4874814;29;44851;-79
2023/12/26 09:19:18;;;;;;;;;5.75;4.00;;;;;14.63;81.57;101142.75;4883074;29;45580;-79
2023/12/26 09:25:43;;;;;;;;;2.00;2.00;;;;;14.77;81.50;101146.38;4883154;29;45765;-80
2023/12/26 09:28:10;;;;;;;;;7.00;3.00;;;;;14.64;81.63;101144.53;4885861;29;44705;-79
2023/12/26 09:30:37;;;;;;;;;1.50;1.25;;;;;14.75;81.76;101153.50;4869573;29;45582;-80
2023/12/26 09:33:03;;;;;;;;;1.00;1.00;;;;;14.70;81.90;101160.59;4877563;29;45487;-80
2023/12/26 09:35:36;;;;;;;;;2.50;2.50;;;;;14.73;81.69;101155.28;4867043;29;45545;-80
2023/12/26 09:38:03;;;;;;;;;2.00;2.00;;;;;14.78;81.72;101164.19;4850107;29;45439;-81
2023/12/26 09:40:28;;;;;;;;;1.75;1.00;;;;;14.77;81.73;101178.50;4849538;29;45470;-80
2023/12/26 09:43:01;;;;;;;;;2.00;2.00;;;;;14.87;81.93;101172.28;4849697;29;46925;-81
2023/12/26 09:45:27;;;;;;;;;2.00;2.00;;;;;14.79;81.89;101172.25;4850177;29;45517;-81
2023/12/26 09:47:53;;;;;;;;;1.75;1.75;;;;;14.86;81.78;101188.34;4853006;29;45000;-80
2023/12/26 09:50:20;;;;;;;;;2.50;2.50;;;;;14.86;81.79;101189.22;4849308;29;45430;-79
2023/12/26 09:52:52;;;;;;;;;1.00;1.00;;;;;14.97;81.89;101194.63;4850739;29;47258;-79
2023/12/26 09:55:19;;;;;;;;;4.25;1.50;;;;;14.97;82.03;101197.31;4867612;29;45377;-79
2023/12/26 09:57:45;;;;;;;;;3.00;2.00;;;;;14.92;81.57;101189.25;4867698;29;45484;-80
2023/12/26 10:00:14;;;;;;;;;3.50;1.25;;;;;14.99;82.13;101200.91;4850965;29;45420;-79
2023/12/26 10:02:41;;;;;;;;;4.50;2.50;;;;;15.06;82.02;101216.06;4850349;29;48429;-81
2023/12/26 10:05:10;;;;;;;;;4.50;2.00;;;;;14.94;81.78;101214.25;4850729;29;45483;-81
2023/12/26 10:07:36;;;;;;;;;2.00;2.00;;;;;14.93;81.74;101214.25;4865178;29;46090;-80
2023/12/26 10:10:02;;;;;;;;;3.00;3.00;;;;;14.98;81.78;101221.41;4838607;29;45493;-79
2023/12/26 10:12:30;;;;;;;;;1.00;1.00;;;;;15.15;81.71;101234.00;4867940;29;45481;-79
2023/12/26 10:14:59;;;;;;;;;2.00;1.00;;;;;15.12;81.47;101226.81;4868293;29;45822;-81
2023/12/26 10:17:26;;;;;;;;;2.75;1.25;;;;;14.98;81.41;101229.44;4867499;29;45538;-80
2023/12/26 10:19:56;;;;;;;;;1.00;1.00;;;;;15.10;81.57;101235.75;4871242;29;45680;-81
2023/12/26 10:22:22;;;;;;;;;2.00;2.00;;;;;15.00;81.71;101230.34;4855463;29;47085;-81
2023/12/26 10:24:48;;;;;;;;;3.50;3.00;;;;;15.02;81.74;101218.75;4854338;29;45738;-80
2023/12/26 10:27:14;;;;;;;;;4.75;4.00;;;;;15.09;81.44;101217.84;4864552;29;45404;-80
2023/12/26 10:29:39;;;;;;;;;2.00;2.00;;;;;15.06;81.30;101220.53;4850510;29;45385;-80
2023/12/26 10:32:05;;;;;;;;;2.75;2.00;;;;;15.06;81.50;101242.88;4851981;29;46988;-79
2023/12/26 10:34:30;;;;;;;;;1.50;1.00;;;;;15.03;81.60;101252.66;4869447;29;45768;-80
2023/12/26 10:36:56;;;;;;;;;1.25;1.25;;;;;15.02;81.65;101245.53;4850575;29;45479;-80
2023/12/26 10:39:23;;;;;;;;;2.00;2.00;;;;;15.08;81.71;101242.88;4870038;29;44938;-80
2023/12/26 10:41:52;;;;;;;;;1.00;1.00;;;;;15.07;81.65;101236.63;4870101;29;46484;-80
2023/12/26 10:44:26;;;;;;;;;1.75;1.75;;;;;15.14;81.89;101226.81;4853017;29;45581;-79
2023/12/26 10:47:02;;;;;;;;;5.25;2.00;;;;;15.18;81.93;101232.19;4851209;29;44853;-81
2023/12/26 10:49:28;;;;;;;;;1.00;1.00;;;;;15.12;82.15;101234.84;4851884;29;44950;-80
2023/12/26 10:51:59;;;;;;;;;0.50;0.50;;;;;15.23;81.81;101240.25;4854032;29;45400;-80
2023/12/26 10:54:27;;;;;;;;;2.50;1.00;;;;;15.24;82.10;101247.38;4854646;29;45700;-80
2023/12/26 10:56:57;;;;;;;;;1.00;1.00;;;;;15.36;81.96;101238.50;4871243;29;45461;-81
2023/12/26 13:51:26;;;;;;;;;4.25;3.00;;;;;15.85;83.72;101211.75;4849763;29;45570;-81
2023/12/26 13:53:52;;;;;;;;;5.00;3.00;;;;;15.78;83.88;101205.50;4832170;29;45466;-81
2023/12/26 13:56:21;;;;;;;;;3.00;3.00;;;;;15.88;83.50;101213.56;4847800;29;45369;-81
2023/12/26 13:58:46;;;;;;;;;4.25;4.25;;;;;15.87;83.52;101214.44;4848605;29;45336;-81
2023/12/26 14:01:19;;;;;;;;;5.25;3.00;;;;;16.06;83.26;101213.56;4833895;29;45415;-80
2023/12/26 14:03:50;;;;;;;;;3.00;2.33;;;;;15.95;83.11;101218.03;4849443;29;45509;-81
2023/12/26 14:06:17;;;;;;;;;6.00;5.33;;;;;15.98;83.14;101218.03;4832737;29;45459;-81
2023/12/26 14:08:42;;;;;;;;;4.67;4.67;;;;;15.87;82.90;101209.09;4849859;29;45361;-80
2023/12/26 14:11:08;;;;;;;;;4.00;4.00;;;;;15.78;83.21;101199.25;4849683;29;45440;-79
2023/12/26 14:13:37;;;;;;;;;6.33;5.00;;;;;15.91;83.20;101213.56;4831769;29;45424;-80
2023/12/26 14:16:02;;;;;;;;;4.75;4.75;;;;;15.76;83.41;101220.72;4848144;29;47004;-79
2023/12/26 14:18:28;;;;;;;;;4.00;4.00;;;;;15.73;83.43;101218.00;4848819;29;45792;-80
2023/12/26 14:20:53;;;;;;;;;5.00;3.75;;;;;15.73;83.74;101215.31;4831550;29;45859;-79
2023/12/26 14:23:18;;;;;;;;;5.25;4.25;;;;;15.73;83.74;101207.28;4849761;29;45418;-80
2023/12/26 14:25:45;;;;;;;;;2.50;2.50;;;;;15.79;84.09;101206.41;4848965;29;45392;-80
2023/12/26 14:28:11;;;;;;;;;4.25;2.50;;;;;15.64;84.38;101217.09;4838964;29;45634;-80
2023/12/26 14:30:36;;;;;;;;;3.50;3.50;;;;;15.55;84.53;101215.28;4857579;29;45662;-80